sensor_id;sensor_type;location;lat;lon;timestamp;P1;durP1;ratioP1;P2;durP2;ratioP2
44694;SDS011;32845;59.422;17.930;2022-10-31T00:01:32;14.85;;;3.20;;
44694;SDS011;32845;59.422;17.930;2022-10-31T00:06:04;8.02;;;3.42;;
44694;SDS011;32845;59.422;17.930;2022-10-31T00:10:37;8.80;;;3.33;;
44694;SDS011;32845;59.422;17.930;2022-10-31T00:15:08;7.57;;;3.17;;
44694;SDS011;32845;59.422;17.930;2022-10-31T00:19:39;9.80;;;3.08;;
44694;SDS011;32845;59.422;17.930;2022-10-31T00:24:10;7.15;;;2.50;;
44694;SDS011;32845;59.422;17.930;2022-10-31T00:28:41;8.30;;;2.92;;
44694;SDS011;32845;59.422;17.930;2022-10-31T00:33:12;5.88;;;3.17;;
44694;SDS011;32845;59.422;17.930;2022-10-31T00:37:42;12.65;;;4.38;;
44694;SDS011;32845;59.422;17.930;2022-10-31T00:42:13;8.45;;;3.70;;
44694;SDS011;32845;59.422;17.930;2022-10-31T00:46:44;9.50;;;3.45;;
44694;SDS011;32845;59.422;17.930;2022-10-31T00:51:14;5.45;;;3.30;;
44694;SDS011;32845;59.422;17.930;2022-10-31T00:55:45;13.77;;;3.38;;
44694;SDS011;32845;59.422;17.930;2022-10-31T01:00:16;6.70;;;3.22;;
44694;SDS011;32845;59.422;17.930;2022-10-31T01:04:47;10.30;;;3.10;;
44694;SDS011;32845;59.422;17.930;2022-10-31T01:09:17;8.10;;;2.97;;
44694;SDS011;32845;59.422;17.930;2022-10-31T01:13:52;12.50;;;2.80;;
44694;SDS011;32845;59.422;17.930;2022-10-31T01:18:23;13.00;;;2.75;;
44694;SDS011;32845;59.422;17.930;2022-10-31T01:22:54;9.65;;;3.20;;
44694;SDS011;32845;59.422;17.930;2022-10-31T01:27:25;6.70;;;2.70;;
44694;SDS011;32845;59.422;17.930;2022-10-31T01:31:56;6.55;;;2.90;;
44694;SDS011;32845;59.422;17.930;2022-10-31T01:36:28;11.98;;;2.90;;
44694;SDS011;32845;59.422;17.930;2022-10-31T01:41:06;5.00;;;2.40;;
44694;SDS011;32845;59.422;17.930;2022-10-31T01:45:40;12.32;;;3.13;;
44694;SDS011;32845;59.422;17.930;2022-10-31T01:50:15;9.98;;;2.88;;
44694;SDS011;32845;59.422;17.930;2022-10-31T01:54:59;4.75;;;2.25;;
44694;SDS011;32845;59.422;17.930;2022-10-31T01:59:39;6.93;;;2.67;;
44694;SDS011;32845;59.422;17.930;2022-10-31T02:04:14;7.15;;;2.47;;
44694;SDS011;32845;59.422;17.930;2022-10-31T02:08:45;7.13;;;2.88;;
44694;SDS011;32845;59.422;17.930;2022-10-31T02:13:16;12.25;;;2.47;;
44694;SDS011;32845;59.422;17.930;2022-10-31T02:17:48;5.28;;;2.50;;
44694;SDS011;32845;59.422;17.930;2022-10-31T02:22:36;15.25;;;2.60;;
44694;SDS011;32845;59.422;17.930;2022-10-31T02:37:09;13.02;;;1.98;;
44694;SDS011;32845;59.422;17.930;2022-10-31T02:41:48;8.57;;;2.80;;
44694;SDS011;32845;59.422;17.930;2022-10-31T02:51:30;6.27;;;2.57;;
44694;SDS011;32845;59.422;17.930;2022-10-31T02:56:02;11.25;;;2.63;;
44694;SDS011;32845;59.422;17.930;2022-10-31T03:00:53;3.78;;;2.13;;
44694;SDS011;32845;59.422;17.930;2022-10-31T03:15:11;4.28;;;2.40;;
44694;SDS011;32845;59.422;17.930;2022-10-31T03:19:45;11.15;;;3.58;;
44694;SDS011;32845;59.422;17.930;2022-10-31T03:24:19;13.75;;;3.03;;
44694;SDS011;32845;59.422;17.930;2022-10-31T03:28:58;5.80;;;3.15;;
44694;SDS011;32845;59.422;17.930;2022-10-31T03:33:35;9.38;;;2.97;;
44694;SDS011;32845;59.422;17.930;2022-10-31T03:38:08;9.48;;;3.30;;
44694;SDS011;32845;59.422;17.930;2022-10-31T03:42:40;9.15;;;3.33;;
44694;SDS011;32845;59.422;17.930;2022-10-31T03:47:14;17.05;;;3.15;;
44694;SDS011;32845;59.422;17.930;2022-10-31T03:51:46;13.23;;;3.30;;
44694;SDS011;32845;59.422;17.930;2022-10-31T04:01:03;10.95;;;3.47;;
44694;SDS011;32845;59.422;17.930;2022-10-31T04:05:38;10.75;;;3.08;;
44694;SDS011;32845;59.422;17.930;2022-10-31T04:10:10;11.57;;;3.50;;
44694;SDS011;32845;59.422;17.930;2022-10-31T04:14:43;13.40;;;4.00;;
44694;SDS011;32845;59.422;17.930;2022-10-31T04:19:16;12.73;;;3.33;;
44694;SDS011;32845;59.422;17.930;2022-10-31T04:23:47;16.38;;;3.70;;
44694;SDS011;32845;59.422;17.930;2022-10-31T04:28:18;20.13;;;3.80;;
44694;SDS011;32845;59.422;17.930;2022-10-31T04:32:48;16.33;;;3.85;;
44694;SDS011;32845;59.422;17.930;2022-10-31T04:37:19;13.52;;;3.63;;
44694;SDS011;32845;59.422;17.930;2022-10-31T04:41:55;15.45;;;3.30;;
44694;SDS011;32845;59.422;17.930;2022-10-31T04:46:25;17.85;;;3.42;;
44694;SDS011;32845;59.422;17.930;2022-10-31T04:50:59;11.75;;;3.78;;
44694;SDS011;32845;59.422;17.930;2022-10-31T04:55:31;16.02;;;3.33;;
44694;SDS011;32845;59.422;17.930;2022-10-31T05:00:02;17.73;;;4.07;;
44694;SDS011;32845;59.422;17.930;2022-10-31T05:04:32;17.20;;;4.10;;
44694;SDS011;32845;59.422;17.930;2022-10-31T05:09:03;22.20;;;3.33;;
44694;SDS011;32845;59.422;17.930;2022-10-31T05:13:34;21.48;;;4.47;;
44694;SDS011;32845;59.422;17.930;2022-10-31T05:18:04;15.65;;;4.35;;
44694;SDS011;32845;59.422;17.930;2022-10-31T05:22:35;17.85;;;5.38;;
44694;SDS011;32845;59.422;17.930;2022-10-31T05:27:06;25.33;;;5.60;;
44694;SDS011;32845;59.422;17.930;2022-10-31T05:31:37;28.60;;;6.55;;
44694;SDS011;32845;59.422;17.930;2022-10-31T05:36:07;16.05;;;5.20;;
44694;SDS011;32845;59.422;17.930;2022-10-31T05:40:38;30.52;;;6.10;;
44694;SDS011;32845;59.422;17.930;2022-10-31T05:45:10;45.60;;;6.13;;
44694;SDS011;32845;59.422;17.930;2022-10-31T05:49:42;58.35;;;6.00;;
44694;SDS011;32845;59.422;17.930;2022-10-31T05:54:13;65.22;;;6.10;;
44694;SDS011;32845;59.422;17.930;2022-10-31T05:58:44;56.72;;;5.35;;
44694;SDS011;32845;59.422;17.930;2022-10-31T06:03:14;71.75;;;8.38;;
44694;SDS011;32845;59.422;17.930;2022-10-31T06:07:45;36.00;;;4.80;;
44694;SDS011;32845;59.422;17.930;2022-10-31T06:12:15;22.98;;;4.80;;
44694;SDS011;32845;59.422;17.930;2022-10-31T06:16:46;43.28;;;5.10;;
44694;SDS011;32845;59.422;17.930;2022-10-31T06:21:22;35.47;;;5.10;;
44694;SDS011;32845;59.422;17.930;2022-10-31T06:25:52;35.45;;;5.93;;
44694;SDS011;32845;59.422;17.930;2022-10-31T06:30:24;47.63;;;4.97;;
44694;SDS011;32845;59.422;17.930;2022-10-31T06:34:55;36.17;;;5.32;;
44694;SDS011;32845;59.422;17.930;2022-10-31T06:39:31;34.00;;;5.60;;
44694;SDS011;32845;59.422;17.930;2022-10-31T06:44:01;36.53;;;5.13;;
44694;SDS011;32845;59.422;17.930;2022-10-31T06:48:32;50.55;;;5.88;;
44694;SDS011;32845;59.422;17.930;2022-10-31T06:53:03;48.22;;;6.25;;
44694;SDS011;32845;59.422;17.930;2022-10-31T06:57:36;39.95;;;5.50;;
44694;SDS011;32845;59.422;17.930;2022-10-31T07:02:08;31.77;;;6.22;;
44694;SDS011;32845;59.422;17.930;2022-10-31T07:06:39;29.25;;;6.13;;
44694;SDS011;32845;59.422;17.930;2022-10-31T07:11:15;56.95;;;5.97;;
44694;SDS011;32845;59.422;17.930;2022-10-31T07:15:45;33.47;;;5.82;;
44694;SDS011;32845;59.422;17.930;2022-10-31T07:20:16;36.00;;;5.47;;
44694;SDS011;32845;59.422;17.930;2022-10-31T07:24:47;29.23;;;6.18;;
44694;SDS011;32845;59.422;17.930;2022-10-31T07:29:18;28.45;;;5.55;;
44694;SDS011;32845;59.422;17.930;2022-10-31T07:33:48;30.63;;;5.70;;
44694;SDS011;32845;59.422;17.930;2022-10-31T07:38:20;40.17;;;6.65;;
44694;SDS011;32845;59.422;17.930;2022-10-31T07:42:51;65.78;;;6.82;;
44694;SDS011;32845;59.422;17.930;2022-10-31T07:47:22;49.78;;;6.65;;
44694;SDS011;32845;59.422;17.930;2022-10-31T07:51:53;35.38;;;6.22;;
44694;SDS011;32845;59.422;17.930;2022-10-31T07:56:25;47.10;;;6.88;;
44694;SDS011;32845;59.422;17.930;2022-10-31T08:00:57;42.72;;;6.88;;
44694;SDS011;32845;59.422;17.930;2022-10-31T08:05:28;47.58;;;8.38;;
44694;SDS011;32845;59.422;17.930;2022-10-31T08:09:59;57.03;;;8.30;;
44694;SDS011;32845;59.422;17.930;2022-10-31T08:14:29;53.55;;;7.82;;
44694;SDS011;32845;59.422;17.930;2022-10-31T08:19:00;49.25;;;8.60;;
44694;SDS011;32845;59.422;17.930;2022-10-31T08:23:30;45.03;;;9.02;;
44694;SDS011;32845;59.422;17.930;2022-10-31T08:28:01;54.28;;;8.18;;
44694;SDS011;32845;59.422;17.930;2022-10-31T08:32:32;69.40;;;9.80;;
44694;SDS011;32845;59.422;17.930;2022-10-31T08:37:03;66.65;;;9.55;;
44694;SDS011;32845;59.422;17.930;2022-10-31T08:41:33;65.25;;;9.40;;
44694;SDS011;32845;59.422;17.930;2022-10-31T08:46:05;64.53;;;9.75;;
44694;SDS011;32845;59.422;17.930;2022-10-31T08:50:37;58.80;;;9.60;;
44694;SDS011;32845;59.422;17.930;2022-10-31T08:55:08;51.58;;;9.07;;
44694;SDS011;32845;59.422;17.930;2022-10-31T08:59:39;45.50;;;8.85;;
44694;SDS011;32845;59.422;17.930;2022-10-31T09:04:09;48.83;;;9.23;;
44694;SDS011;32845;59.422;17.930;2022-10-31T09:08:40;46.20;;;8.80;;
44694;SDS011;32845;59.422;17.930;2022-10-31T09:13:11;44.72;;;10.15;;
44694;SDS011;32845;59.422;17.930;2022-10-31T09:17:47;35.15;;;8.45;;
44694;SDS011;32845;59.422;17.930;2022-10-31T09:22:18;46.58;;;9.50;;
44694;SDS011;32845;59.422;17.930;2022-10-31T09:26:48;40.35;;;9.55;;
44694;SDS011;32845;59.422;17.930;2022-10-31T09:31:19;35.58;;;9.43;;
44694;SDS011;32845;59.422;17.930;2022-10-31T09:35:50;36.90;;;8.95;;
44694;SDS011;32845;59.422;17.930;2022-10-31T09:40:21;40.13;;;8.88;;
44694;SDS011;32845;59.422;17.930;2022-10-31T09:45:10;24.90;;;8.32;;
44694;SDS011;32845;59.422;17.930;2022-10-31T09:59:34;27.27;;;8.63;;
44694;SDS011;32845;59.422;17.930;2022-10-31T10:09:09;30.67;;;8.95;;
44694;SDS011;32845;59.422;17.930;2022-10-31T10:19:10;23.30;;;9.30;;
44694;SDS011;32845;59.422;17.930;2022-10-31T10:28:35;23.33;;;8.48;;
44694;SDS011;32845;59.422;17.930;2022-10-31T10:33:11;31.25;;;9.90;;
44694;SDS011;32845;59.422;17.930;2022-10-31T10:37:44;25.83;;;9.07;;
44694;SDS011;32845;59.422;17.930;2022-10-31T10:42:16;25.83;;;9.00;;
44694;SDS011;32845;59.422;17.930;2022-10-31T10:47:06;19.02;;;8.02;;
44694;SDS011;32845;59.422;17.930;2022-10-31T10:51:57;21.23;;;7.22;;
44694;SDS011;32845;59.422;17.930;2022-10-31T11:01:13;23.88;;;7.22;;
44694;SDS011;32845;59.422;17.930;2022-10-31T11:05:51;18.65;;;7.78;;
44694;SDS011;32845;59.422;17.930;2022-10-31T11:10:28;24.70;;;8.48;;
44694;SDS011;32845;59.422;17.930;2022-10-31T11:15:01;19.08;;;7.97;;
44694;SDS011;32845;59.422;17.930;2022-10-31T11:19:38;23.37;;;7.80;;
44694;SDS011;32845;59.422;17.930;2022-10-31T11:28:39;18.58;;;8.13;;
44694;SDS011;32845;59.422;17.930;2022-10-31T11:38:12;23.75;;;9.13;;
44694;SDS011;32845;59.422;17.930;2022-10-31T11:42:52;19.55;;;8.00;;
44694;SDS011;32845;59.422;17.930;2022-10-31T11:47:27;15.65;;;6.80;;
44694;SDS011;32845;59.422;17.930;2022-10-31T11:52:01;9.45;;;5.78;;
44694;SDS011;32845;59.422;17.930;2022-10-31T11:56:41;10.00;;;5.95;;
44694;SDS011;32845;59.422;17.930;2022-10-31T12:01:22;9.90;;;4.60;;
44694;SDS011;32845;59.422;17.930;2022-10-31T12:05:58;14.48;;;4.88;;
44694;SDS011;32845;59.422;17.930;2022-10-31T12:10:37;13.73;;;5.10;;
44694;SDS011;32845;59.422;17.930;2022-10-31T12:24:48;16.88;;;5.07;;
44694;SDS011;32845;59.422;17.930;2022-10-31T12:58:56;9.23;;;4.50;;
44694;SDS011;32845;59.422;17.930;2022-10-31T13:08:24;13.43;;;3.95;;
44694;SDS011;32845;59.422;17.930;2022-10-31T13:13:23;19.73;;;4.78;;
44694;SDS011;32845;59.422;17.930;2022-10-31T13:17:54;17.48;;;4.57;;
44694;SDS011;32845;59.422;17.930;2022-10-31T13:22:29;13.00;;;4.57;;
44694;SDS011;32845;59.422;17.930;2022-10-31T13:27:20;12.70;;;3.85;;
44694;SDS011;32845;59.422;17.930;2022-10-31T13:31:53;10.98;;;3.90;;
44694;SDS011;32845;59.422;17.930;2022-10-31T13:41:26;17.33;;;4.15;;
44694;SDS011;32845;59.422;17.930;2022-10-31T13:46:01;12.20;;;3.60;;
44694;SDS011;32845;59.422;17.930;2022-10-31T13:50:32;14.13;;;3.53;;
44694;SDS011;32845;59.422;17.930;2022-10-31T13:55:03;21.08;;;4.25;;
44694;SDS011;32845;59.422;17.930;2022-10-31T13:59:35;13.13;;;3.60;;
44694;SDS011;32845;59.422;17.930;2022-10-31T14:04:14;14.20;;;3.92;;
44694;SDS011;32845;59.422;17.930;2022-10-31T14:08:48;11.25;;;4.72;;
44694;SDS011;32845;59.422;17.930;2022-10-31T14:13:29;9.35;;;4.15;;
44694;SDS011;32845;59.422;17.930;2022-10-31T14:18:04;17.40;;;4.10;;
44694;SDS011;32845;59.422;17.930;2022-10-31T14:22:37;11.02;;;4.03;;
44694;SDS011;32845;59.422;17.930;2022-10-31T14:36:42;15.43;;;3.45;;
44694;SDS011;32845;59.422;17.930;2022-10-31T14:51:12;14.90;;;3.30;;
44694;SDS011;32845;59.422;17.930;2022-10-31T14:55:48;12.00;;;3.92;;
44694;SDS011;32845;59.422;17.930;2022-10-31T15:00:22;16.55;;;3.70;;
44694;SDS011;32845;59.422;17.930;2022-10-31T15:04:54;11.63;;;3.60;;
44694;SDS011;32845;59.422;17.930;2022-10-31T15:09:30;9.43;;;3.40;;
44694;SDS011;32845;59.422;17.930;2022-10-31T15:14:14;12.57;;;3.83;;
44694;SDS011;32845;59.422;17.930;2022-10-31T15:19:04;14.73;;;4.13;;
44694;SDS011;32845;59.422;17.930;2022-10-31T15:23:37;7.65;;;3.08;;
44694;SDS011;32845;59.422;17.930;2022-10-31T15:28:15;10.75;;;3.65;;
44694;SDS011;32845;59.422;17.930;2022-10-31T15:32:56;12.00;;;3.85;;
44694;SDS011;32845;59.422;17.930;2022-10-31T15:37:26;12.45;;;3.55;;
44694;SDS011;32845;59.422;17.930;2022-10-31T15:41:58;7.55;;;3.38;;
44694;SDS011;32845;59.422;17.930;2022-10-31T15:46:30;10.13;;;3.83;;
44694;SDS011;32845;59.422;17.930;2022-10-31T15:51:01;8.60;;;3.58;;
44694;SDS011;32845;59.422;17.930;2022-10-31T15:55:33;10.68;;;3.95;;
44694;SDS011;32845;59.422;17.930;2022-10-31T16:04:56;12.70;;;3.70;;
44694;SDS011;32845;59.422;17.930;2022-10-31T16:09:31;17.77;;;3.40;;
44694;SDS011;32845;59.422;17.930;2022-10-31T16:14:05;8.38;;;2.97;;
44694;SDS011;32845;59.422;17.930;2022-10-31T16:18:45;16.45;;;3.50;;
44694;SDS011;32845;59.422;17.930;2022-10-31T16:23:17;15.85;;;3.38;;
44694;SDS011;32845;59.422;17.930;2022-10-31T16:27:50;17.23;;;3.20;;
44694;SDS011;32845;59.422;17.930;2022-10-31T16:32:35;13.05;;;3.20;;
44694;SDS011;32845;59.422;17.930;2022-10-31T16:37:07;8.68;;;2.60;;
44694;SDS011;32845;59.422;17.930;2022-10-31T16:41:39;7.82;;;2.42;;
44694;SDS011;32845;59.422;17.930;2022-10-31T16:46:22;13.10;;;3.25;;
44694;SDS011;32845;59.422;17.930;2022-10-31T16:50:54;12.45;;;3.78;;
44694;SDS011;32845;59.422;17.930;2022-10-31T16:55:25;12.00;;;3.35;;
44694;SDS011;32845;59.422;17.930;2022-10-31T16:59:56;11.32;;;3.22;;
44694;SDS011;32845;59.422;17.930;2022-10-31T17:04:27;9.45;;;3.20;;
44694;SDS011;32845;59.422;17.930;2022-10-31T17:09:03;13.65;;;3.40;;
44694;SDS011;32845;59.422;17.930;2022-10-31T17:13:33;20.10;;;3.38;;
44694;SDS011;32845;59.422;17.930;2022-10-31T17:18:04;12.43;;;3.33;;
44694;SDS011;32845;59.422;17.930;2022-10-31T17:22:35;7.07;;;3.33;;
44694;SDS011;32845;59.422;17.930;2022-10-31T17:27:06;11.05;;;3.28;;
44694;SDS011;32845;59.422;17.930;2022-10-31T17:31:36;10.73;;;3.45;;
44694;SDS011;32845;59.422;17.930;2022-10-31T17:36:08;8.55;;;3.72;;
44694;SDS011;32845;59.422;17.930;2022-10-31T17:40:43;12.27;;;3.83;;
44694;SDS011;32845;59.422;17.930;2022-10-31T17:45:15;13.65;;;3.83;;
44694;SDS011;32845;59.422;17.930;2022-10-31T17:49:46;9.77;;;3.22;;
44694;SDS011;32845;59.422;17.930;2022-10-31T17:54:16;10.15;;;3.45;;
44694;SDS011;32845;59.422;17.930;2022-10-31T17:58:56;11.32;;;3.10;;
44694;SDS011;32845;59.422;17.930;2022-10-31T18:03:27;7.40;;;2.67;;
44694;SDS011;32845;59.422;17.930;2022-10-31T18:07:58;16.95;;;2.67;;
44694;SDS011;32845;59.422;17.930;2022-10-31T18:12:29;12.93;;;3.25;;
44694;SDS011;32845;59.422;17.930;2022-10-31T18:17:01;17.10;;;3.00;;
44694;SDS011;32845;59.422;17.930;2022-10-31T18:21:32;13.57;;;2.92;;
44694;SDS011;32845;59.422;17.930;2022-10-31T18:26:02;14.73;;;2.85;;
44694;SDS011;32845;59.422;17.930;2022-10-31T18:30:33;7.35;;;2.55;;
44694;SDS011;32845;59.422;17.930;2022-10-31T18:35:08;7.32;;;3.20;;
44694;SDS011;32845;59.422;17.930;2022-10-31T18:39:39;9.07;;;2.97;;
44694;SDS011;32845;59.422;17.930;2022-10-31T18:44:09;13.18;;;3.67;;
44694;SDS011;32845;59.422;17.930;2022-10-31T18:48:41;11.90;;;4.00;;
44694;SDS011;32845;59.422;17.930;2022-10-31T18:53:12;9.25;;;3.13;;
44694;SDS011;32845;59.422;17.930;2022-10-31T18:57:43;8.63;;;2.97;;
44694;SDS011;32845;59.422;17.930;2022-10-31T19:02:14;12.20;;;3.17;;
44694;SDS011;32845;59.422;17.930;2022-10-31T19:06:44;12.20;;;3.45;;
44694;SDS011;32845;59.422;17.930;2022-10-31T19:11:15;7.95;;;2.58;;
44694;SDS011;32845;59.422;17.930;2022-10-31T19:15:46;14.18;;;3.13;;
44694;SDS011;32845;59.422;17.930;2022-10-31T19:20:17;7.05;;;2.72;;
44694;SDS011;32845;59.422;17.930;2022-10-31T19:24:47;6.43;;;2.50;;
44694;SDS011;32845;59.422;17.930;2022-10-31T19:29:18;6.65;;;2.50;;
44694;SDS011;32845;59.422;17.930;2022-10-31T19:33:49;10.02;;;2.50;;
44694;SDS011;32845;59.422;17.930;2022-10-31T19:38:20;6.45;;;2.75;;
44694;SDS011;32845;59.422;17.930;2022-10-31T19:42:57;9.07;;;2.08;;
44694;SDS011;32845;59.422;17.930;2022-10-31T19:47:27;18.45;;;3.15;;
44694;SDS011;32845;59.422;17.930;2022-10-31T19:51:58;19.13;;;2.88;;
44694;SDS011;32845;59.422;17.930;2022-10-31T19:56:29;11.27;;;2.65;;
44694;SDS011;32845;59.422;17.930;2022-10-31T20:01:04;11.52;;;3.33;;
44694;SDS011;32845;59.422;17.930;2022-10-31T20:05:43;11.90;;;3.05;;
44694;SDS011;32845;59.422;17.930;2022-10-31T20:10:14;12.30;;;3.78;;
44694;SDS011;32845;59.422;17.930;2022-10-31T20:14:45;11.07;;;3.33;;
44694;SDS011;32845;59.422;17.930;2022-10-31T20:19:23;9.68;;;3.67;;
44694;SDS011;32845;59.422;17.930;2022-10-31T20:23:57;11.88;;;3.03;;
44694;SDS011;32845;59.422;17.930;2022-10-31T20:28:30;9.27;;;2.67;;
44694;SDS011;32845;59.422;17.930;2022-10-31T20:33:01;6.78;;;2.58;;
44694;SDS011;32845;59.422;17.930;2022-10-31T20:37:32;6.50;;;2.38;;
44694;SDS011;32845;59.422;17.930;2022-10-31T20:42:08;14.00;;;2.60;;
44694;SDS011;32845;59.422;17.930;2022-10-31T20:46:38;20.33;;;3.20;;
44694;SDS011;32845;59.422;17.930;2022-10-31T20:51:15;7.60;;;2.83;;
44694;SDS011;32845;59.422;17.930;2022-10-31T20:56:04;9.60;;;2.58;;
44694;SDS011;32845;59.422;17.930;2022-10-31T21:00:37;15.13;;;3.95;;
44694;SDS011;32845;59.422;17.930;2022-10-31T21:05:08;5.07;;;2.13;;
44694;SDS011;32845;59.422;17.930;2022-10-31T21:09:40;15.63;;;2.90;;
44694;SDS011;32845;59.422;17.930;2022-10-31T21:14:12;14.70;;;3.60;;
44694;SDS011;32845;59.422;17.930;2022-10-31T21:18:43;15.63;;;3.47;;
44694;SDS011;32845;59.422;17.930;2022-10-31T21:23:14;14.15;;;2.83;;
44694;SDS011;32845;59.422;17.930;2022-10-31T21:27:45;5.53;;;2.40;;
44694;SDS011;32845;59.422;17.930;2022-10-31T21:32:16;10.13;;;2.53;;
44694;SDS011;32845;59.422;17.930;2022-10-31T21:36:47;12.75;;;2.83;;
44694;SDS011;32845;59.422;17.930;2022-10-31T21:41:17;15.95;;;2.88;;
44694;SDS011;32845;59.422;17.930;2022-10-31T21:45:49;6.75;;;2.42;;
44694;SDS011;32845;59.422;17.930;2022-10-31T21:50:20;17.52;;;3.45;;
44694;SDS011;32845;59.422;17.930;2022-10-31T21:54:51;12.43;;;3.88;;
44694;SDS011;32845;59.422;17.930;2022-10-31T21:59:27;24.17;;;3.90;;
44694;SDS011;32845;59.422;17.930;2022-10-31T22:03:58;12.20;;;3.10;;
44694;SDS011;32845;59.422;17.930;2022-10-31T22:08:29;18.33;;;3.25;;
44694;SDS011;32845;59.422;17.930;2022-10-31T22:13:05;18.65;;;3.30;;
44694;SDS011;32845;59.422;17.930;2022-10-31T22:17:36;13.75;;;3.28;;
44694;SDS011;32845;59.422;17.930;2022-10-31T22:22:06;17.77;;;3.22;;
44694;SDS011;32845;59.422;17.930;2022-10-31T22:26:37;11.40;;;3.05;;
44694;SDS011;32845;59.422;17.930;2022-10-31T22:31:15;20.60;;;3.20;;
44694;SDS011;32845;59.422;17.930;2022-10-31T22:35:46;22.70;;;3.58;;
44694;SDS011;32845;59.422;17.930;2022-10-31T22:40:17;14.20;;;2.78;;
44694;SDS011;32845;59.422;17.930;2022-10-31T22:44:48;15.98;;;2.97;;
44694;SDS011;32845;59.422;17.930;2022-10-31T22:49:19;19.10;;;3.33;;
44694;SDS011;32845;59.422;17.930;2022-10-31T22:53:49;20.63;;;3.10;;
44694;SDS011;32845;59.422;17.930;2022-10-31T22:58:20;13.50;;;3.05;;
44694;SDS011;32845;59.422;17.930;2022-10-31T23:02:51;14.38;;;3.03;;
44694;SDS011;32845;59.422;17.930;2022-10-31T23:07:22;18.60;;;2.60;;
44694;SDS011;32845;59.422;17.930;2022-10-31T23:11:52;9.68;;;2.50;;
44694;SDS011;32845;59.422;17.930;2022-10-31T23:16:23;8.38;;;2.15;;
44694;SDS011;32845;59.422;17.930;2022-10-31T23:20:59;13.70;;;2.20;;
44694;SDS011;32845;59.422;17.930;2022-10-31T23:25:31;9.52;;;2.25;;
44694;SDS011;32845;59.422;17.930;2022-10-31T23:30:25;14.15;;;2.88;;
44694;SDS011;32845;59.422;17.930;2022-10-31T23:34:57;12.55;;;2.85;;
44694;SDS011;32845;59.422;17.930;2022-10-31T23:39:29;21.30;;;2.45;;
44694;SDS011;32845;59.422;17.930;2022-10-31T23:44:00;12.85;;;2.15;;
44694;SDS011;32845;59.422;17.930;2022-10-31T23:48:30;15.00;;;2.90;;
44694;SDS011;32845;59.422;17.930;2022-10-31T23:53:06;33.33;;;3.50;;
44694;SDS011;32845;59.422;17.930;2022-10-31T23:57:37;10.80;;;2.25;;
